Terminal Aerodrome Forecast
Issued by NWS Wilmington, OH

Current Version | Previous Version | Graphics & Text | Print | Product List | Glossary On
Versions: 1 2 3 4 5 6 7 8 9 10 11 12 13 14 15 16 17 18 19 20 21 22
000
FTUS41 KILN 222300 RRA
TAFILN
TAF
KILN 222342Z 2300/2324 01006KT P6SM BKN025
     FM230600 03004KT P6SM SCT025
     FM230800 VRB03KT P6SM SKC
      TEMPO 2309/2311 5SM BR
     FM231500 31005KT P6SM SCT250
     FM232000 VRB03KT P6SM SCT250=

USA.gov is the U.S. government's official web portal to all federal, state and local government web resources and services.